Time;durP1;ratioP1;P1;durP2;ratioP2;P2;SDS_P1;SDS_P2;PMS_P1;PMS_P2;Temp;Humidity;BMP_temperature;BMP_pressure;BME280_temperature;BME280_humidity;BME280_pressure;Samples;Min_cycle;Max_cycle;Signal;HPM_P1;HPM_P2
2022/09/08 00:00:25;;;;;;;19.75;4.78;;;;;;;19.02;81.02;95754.75;5051965;28;20098;-75
2022/09/08 00:02:52;;;;;;;21.98;5.07;;;;;;;18.93;81.44;95763.38;5052340;28;20052;-75
2022/09/08 00:05:22;;;;;;;18.77;4.63;;;;;;;18.85;81.57;95764.53;5051628;28;20045;-75
2022/09/08 00:07:51;;;;;;;18.00;4.28;;;;;;;18.78;82.42;95756.19;5052221;28;20041;-75
2022/09/08 00:10:17;;;;;;;18.80;4.20;;;;;;;18.84;82.25;95765.69;5051655;28;20041;-75
2022/09/08 00:12:44;;;;;;;20.65;4.45;;;;;;;18.83;82.31;95775.13;5052024;28;20083;-75
2022/09/08 00:15:12;;;;;;;21.38;4.40;;;;;;;18.92;82.06;95767.31;5051624;28;20037;-76
2022/09/08 00:17:39;;;;;;;11.95;3.30;;;;;;;19.01;81.10;95759.50;5051938;28;20523;-75
2022/09/08 00:20:07;;;;;;;40.08;6.15;;;;;;;18.95;80.40;95752.75;5047704;28;20052;-75
2022/09/08 00:22:33;;;;;;;19.42;3.70;;;;;;;18.95;80.24;95732.63;5031986;28;20512;-75
2022/09/08 00:25:01;;;;;;;16.20;3.05;;;;;;;19.04;79.55;95731.09;5032150;28;20500;-75
2022/09/08 00:27:28;;;;;;;15.23;2.78;;;;;;;19.04;80.11;95722.03;5049892;28;20044;-75
2022/09/08 00:29:54;;;;;;;15.30;3.17;;;;;;;18.99;80.22;95728.72;5051809;28;20385;-75
2022/09/08 00:32:20;;;;;;;18.38;3.15;;;;;;;19.04;80.13;95725.59;5051214;28;20052;-75
2022/09/08 00:34:47;;;;;;;15.40;3.08;;;;;;;18.99;79.84;95727.94;5051739;28;20049;-75
2022/09/08 00:37:14;;;;;;;16.77;3.25;;;;;;;18.95;80.37;95733.44;5051310;28;20052;-75
2022/09/08 00:39:41;;;;;;;19.13;3.15;;;;;;;18.89;80.60;95737.72;5051556;28;20443;-75
2022/09/08 00:42:09;;;;;;;14.18;2.67;;;;;;;18.90;80.79;95725.53;5051238;28;20044;-76
2022/09/08 00:44:44;;;;;;;12.60;2.65;;;;;;;18.84;81.31;95727.06;5051635;28;20045;-75
2022/09/08 00:47:16;;;;;;;16.40;2.95;;;;;;;18.85;81.03;95723.16;5051039;28;20134;-75
2022/09/08 00:49:46;;;;;;;18.23;3.20;;;;;;;18.82;81.37;95712.09;5051660;28;20041;-76
2022/09/08 00:52:13;;;;;;;11.73;2.53;;;;;;;18.84;81.37;95721.53;5030759;28;20555;-74
2022/09/08 00:54:39;;;;;;;14.15;2.70;;;;;;;18.82;81.41;95723.91;5031454;28;20048;-75
2022/09/08 00:57:06;;;;;;;15.20;2.97;;;;;;;18.71;82.39;95729.38;5046345;28;20049;-75
2022/09/08 00:59:36;;;;;;;15.57;2.85;;;;;;;18.78;82.16;95725.84;5051326;28;20049;-75
2022/09/08 01:02:21;;;;;;;15.18;3.08;;;;;;;18.72;82.60;95730.16;5050570;28;20068;-74
2022/09/08 01:04:49;;;;;;;13.38;2.97;;;;;;;18.69;82.76;95764.03;5051137;28;20045;-74
2022/09/08 01:12:58;;;;;;;18.27;3.35;;;;;;;18.40;85.13;95765.78;5051097;28;20052;-74
2022/09/08 01:15:28;;;;;;;15.35;3.22;;;;;;;18.27;85.51;95762.53;5050650;28;20052;-74
2022/09/08 01:17:56;;;;;;;23.08;3.95;;;;;;;18.17;87.12;95755.78;5050885;28;20047;-75
2022/09/08 01:20:28;;;;;;;16.58;3.25;;;;;;;18.07;87.34;95752.94;5047272;28;20041;-77
2022/09/08 01:23:32;;;;;;;18.15;3.58;;;;;;;18.13;87.38;95749.44;5031020;28;20080;-76
2022/09/08 01:26:10;;;;;;;14.77;3.05;;;;;;;17.99;88.08;95758.34;5037017;28;20048;-75
2022/09/08 01:28:42;;;;;;;25.13;3.83;;;;;;;17.89;89.23;95755.50;5050740;28;20061;-75
2022/09/08 01:31:09;;;;;;;18.42;3.80;;;;;;;17.84;90.71;95759.41;5050297;28;20055;-75
2022/09/08 01:33:37;;;;;;;19.70;3.45;;;;;;;17.77;91.05;95759.34;5050716;28;20064;-76
2022/09/08 01:36:08;;;;;;;18.25;3.35;;;;;;;17.83;90.81;95768.84;5050212;28;20534;-75
2022/09/08 01:38:35;;;;;;;20.48;4.22;;;;;;;17.72;91.19;95770.66;5050662;28;20053;-76
2022/09/08 01:41:01;;;;;;;12.38;3.20;;;;;;;17.85;91.07;95780.25;5050020;28;20048;-73
2022/09/08 01:43:28;;;;;;;20.25;4.05;;;;;;;17.67;92.33;95782.81;5050511;28;20045;-77
2022/09/08 01:45:57;;;;;;;16.75;3.33;;;;;;;17.80;91.96;95777.06;5050428;28;20408;-76
2022/09/08 01:48:24;;;;;;;19.77;3.95;;;;;;;17.85;91.49;95771.19;5049966;28;20040;-76
2022/09/08 01:50:51;;;;;;;15.75;3.20;;;;;;;17.74;92.33;95760.09;5043210;28;20049;-73
2022/09/08 01:53:18;;;;;;;13.90;3.38;;;;;;;17.73;93.09;95756.53;5029967;28;20136;-74
2022/09/08 01:55:44;;;;;;;14.82;3.60;;;;;;;17.78;92.36;95760.91;5034430;28;20713;-75
2022/09/08 01:58:11;;;;;;;17.00;4.07;;;;;;;17.86;91.33;95765.34;5049869;28;20064;-75
2022/09/08 02:00:40;;;;;;;15.25;3.80;;;;;;;17.87;91.44;95775.19;5050255;28;20068;-75
2022/09/08 02:03:08;;;;;;;24.05;4.25;;;;;;;17.49;94.50;95776.34;5049442;28;20052;-75
2022/09/08 02:05:38;;;;;;;18.55;4.20;;;;;;;17.30;96.45;95784.75;5050083;28;20056;-75
2022/09/08 02:08:04;;;;;;;18.27;4.32;;;;;;;17.52;95.66;95786.59;5049417;28;20459;-74
2022/09/08 02:10:31;;;;;;;23.80;5.32;;;;;;;17.45;96.18;95809.31;5049787;28;20408;-74
2022/09/08 02:12:57;;;;;;;20.13;4.93;;;;;;;17.25;98.01;95796.88;5049740;28;20083;-74
2022/09/08 02:15:24;;;;;;;20.50;5.47;;;;;;;17.38;97.75;95802.94;5049577;28;20068;-75
2022/09/08 02:17:51;;;;;;;20.10;5.40;;;;;;;16.94;100.00;95807.09;5049198;28;20567;-74
2022/09/08 02:20:20;;;;;;;24.05;6.00;;;;;;;17.17;100.00;95797.94;5046965;28;20049;-74
2022/09/08 02:22:46;;;;;;;14.77;4.97;;;;;;;17.38;98.89;95795.50;5029767;28;20065;-75
2022/09/08 02:25:13;;;;;;;18.02;5.10;;;;;;;17.53;98.35;95803.88;5029549;28;20045;-75
2022/09/08 02:27:40;;;;;;;19.02;4.72;;;;;;;17.61;97.60;95794.56;5032836;28;20171;-75
2022/09/08 02:30:08;;;;;;;12.80;4.53;;;;;;;17.66;96.83;95785.94;5031966;28;20522;-74
2022/09/08 02:32:35;;;;;;;18.73;5.43;;;;;;;17.71;96.92;95788.38;5029876;28;20103;-75
2022/09/08 02:35:02;;;;;;;15.80;4.65;;;;;;;17.82;96.47;95800.31;5029532;28;20072;-74
2022/09/08 02:37:30;;;;;;;12.32;4.45;;;;;;;17.86;95.70;95795.63;5029482;28;20042;-76
2022/09/08 02:39:56;;;;;;;17.65;5.40;;;;;;;17.83;95.30;95790.09;5029669;28;20065;-75
2022/09/08 02:42:23;;;;;;;16.90;4.72;;;;;;;17.87;94.20;95786.19;5028999;28;20042;-75
2022/09/08 02:44:50;;;;;;;22.05;5.75;;;;;;;17.89;94.62;95777.53;5029556;28;20048;-75
2022/09/08 02:47:16;;;;;;;17.17;5.00;;;;;;;17.83;93.69;95779.84;5028973;28;20530;-74
2022/09/08 02:49:43;;;;;;;20.27;5.10;;;;;;;17.85;93.50;95785.75;5029358;28;20527;-74
2022/09/08 02:52:11;;;;;;;17.55;4.75;;;;;;;17.85;93.15;95788.53;5030959;28;20381;-74
2022/09/08 02:54:39;;;;;;;13.60;3.70;;;;;;;17.64;92.77;95783.56;5029380;28;20766;-76
2022/09/08 02:57:05;;;;;;;18.92;4.57;;;;;;;17.50;92.84;95772.41;5044449;28;20073;-74
2022/09/08 02:59:32;;;;;;;14.55;3.63;;;;;;;17.60;92.02;95771.75;5049398;28;20136;-74
2022/09/08 03:01:58;;;;;;;19.25;3.85;;;;;;;17.40;91.58;95779.38;5049381;28;20041;-74
2022/09/08 03:04:25;;;;;;;21.80;4.07;;;;;;;17.35;92.14;95778.94;5048831;28;20045;-75
2022/09/08 03:06:52;;;;;;;14.60;3.58;;;;;;;17.39;91.81;95772.28;5049300;28;20408;-74
2022/09/08 03:09:18;;;;;;;16.98;3.60;;;;;;;17.12;91.82;95765.28;5048794;28;20053;-75
2022/09/08 03:11:46;;;;;;;14.48;3.13;;;;;;;16.94;93.18;95765.06;5049307;28;20041;-75
2022/09/08 03:14:12;;;;;;;12.85;2.97;;;;;;;16.88;93.64;95759.09;5048669;28;20045;-74
2022/09/08 03:16:39;;;;;;;14.32;3.10;;;;;;;16.89;93.47;95754.38;5049288;28;20048;-75
2022/09/08 03:19:07;;;;;;;10.95;2.25;;;;;;;16.88;92.84;95742.59;5048877;28;20519;-75
2022/09/08 03:21:33;;;;;;;20.13;3.22;;;;;;;16.97;92.54;95739.56;5036274;28;20045;-75
2022/09/08 03:24:00;;;;;;;9.05;2.17;;;;;;;17.12;91.87;95729.50;5029252;28;20463;-75
2022/09/08 03:26:26;;;;;;;20.58;3.58;;;;;;;17.12;90.25;95721.25;5038565;28;20037;-74
2022/09/08 03:28:54;;;;;;;10.50;2.50;;;;;;;17.13;89.85;95709.91;5051219;28;20044;-74
2022/09/08 03:31:22;;;;;;;16.48;3.10;;;;;;;17.27;89.24;95703.75;5052207;28;20056;-74
2022/09/08 03:33:48;;;;;;;15.50;2.80;;;;;;;17.22;89.40;95706.81;5052966;28;20187;-74
2022/09/08 03:36:17;;;;;;;14.68;2.55;;;;;;;17.27;89.71;95712.00;5052601;28;20053;-74
2022/09/08 03:38:43;;;;;;;13.85;2.70;;;;;;;17.15;89.71;95707.53;5052920;28;20454;-74
2022/09/08 03:41:13;;;;;;;17.35;3.05;;;;;;;17.02;90.27;95708.16;5052283;28;20078;-74
2022/09/08 03:43:43;;;;;;;14.43;2.72;;;;;;;17.15;90.39;95701.25;5052730;28;20047;-74
2022/09/08 03:46:10;;;;;;;16.92;2.95;;;;;;;17.22;90.35;95699.38;5052169;28;20052;-74
2022/09/08 03:48:37;;;;;;;16.40;3.38;;;;;;;17.23;90.11;95702.94;5052436;28;20115;-75
2022/09/08 03:51:11;;;;;;;14.15;2.60;;;;;;;17.31;89.82;95698.28;5043140;28;20041;-76
2022/09/08 03:53:38;;;;;;;14.15;2.75;;;;;;;17.33;88.47;95696.75;5032142;28;20052;-75
2022/09/08 03:56:06;;;;;;;13.35;2.65;;;;;;;17.39;87.50;95698.00;5038943;28;20056;-75
2022/09/08 03:58:33;;;;;;;12.15;2.42;;;;;;;17.33;87.12;95696.75;5052388;28;20049;-75
2022/09/08 04:01:00;;;;;;;14.10;2.97;;;;;;;17.35;87.31;95699.91;5052301;28;20135;-75
2022/09/08 04:03:28;;;;;;;11.43;2.30;;;;;;;17.39;87.54;95699.94;5052099;28;20691;-76
2022/09/08 04:05:55;;;;;;;12.60;2.42;;;;;;;17.44;87.57;95703.16;5052430;28;20586;-75
2022/09/08 04:08:21;;;;;;;15.32;2.95;;;;;;;17.36;87.15;95712.50;5051764;28;20542;-76
2022/09/08 04:10:48;;;;;;;10.15;2.15;;;;;;;17.30;86.98;95711.25;5052364;28;20182;-75
2022/09/08 04:13:14;;;;;;;15.30;3.05;;;;;;;17.04;88.12;95711.34;5051491;28;20045;-75
2022/09/08 04:15:41;;;;;;;15.13;3.03;;;;;;;16.97;88.39;95708.53;5052027;28;20048;-75
2022/09/08 04:18:07;;;;;;;16.10;3.00;;;;;;;16.97;88.75;95705.78;5051688;28;20052;-75
2022/09/08 04:20:35;;;;;;;14.02;3.13;;;;;;;16.92;89.68;95704.94;5047184;28;20052;-75
2022/09/08 04:23:01;;;;;;;15.82;3.47;;;;;;;16.98;90.32;95697.16;5031577;28;20045;-75
2022/09/08 04:25:28;;;;;;;15.85;3.10;;;;;;;17.06;89.47;95707.03;5033769;28;20063;-75
2022/09/08 04:27:54;;;;;;;14.20;3.05;;;;;;;17.06;89.57;95698.00;5051978;28;20044;-76
2022/09/08 04:30:21;;;;;;;11.52;2.63;;;;;;;17.15;89.69;95701.25;5051171;28;20055;-75
2022/09/08 04:32:48;;;;;;;13.02;2.45;;;;;;;17.24;89.48;95701.75;5051785;28;20037;-75
2022/09/08 04:35:14;;;;;;;11.70;2.55;;;;;;;17.34;89.19;95705.78;5051405;28;20045;-75
2022/09/08 04:37:42;;;;;;;16.13;3.15;;;;;;;17.30;89.20;95703.00;5051482;28;20397;-75
2022/09/08 04:40:09;;;;;;;12.70;3.10;;;;;;;17.19;89.42;95718.59;5050437;28;20063;-75
2022/09/08 04:42:36;;;;;;;14.63;3.65;;;;;;;17.06;89.73;95720.00;5051481;28;20583;-75
2022/09/08 04:45:03;;;;;;;18.83;3.70;;;;;;;17.05;89.42;95724.72;5051040;28;20041;-75
2022/09/08 04:47:31;;;;;;;14.35;2.75;;;;;;;16.98;90.82;95734.84;5051600;28;20041;-75
2022/09/08 04:49:57;;;;;;;14.40;3.50;;;;;;;17.02;90.54;95735.66;5051335;28;20056;-75
2022/09/08 04:52:25;;;;;;;14.38;3.65;;;;;;;16.85;91.37;95743.31;5031141;28;20164;-75
2022/09/08 04:54:53;;;;;;;20.63;4.57;;;;;;;16.81;91.87;95748.00;5031167;28;20047;-76
2022/09/08 04:57:20;;;;;;;12.60;2.97;;;;;;;16.86;91.68;95753.19;5048281;28;20045;-75
2022/09/08 04:59:46;;;;;;;13.93;3.22;;;;;;;16.93;91.33;95750.53;5051343;28;20049;-76
2022/09/08 05:02:13;;;;;;;15.60;3.53;;;;;;;16.93;91.16;95750.53;5050875;28;20056;-75
2022/09/08 05:04:39;;;;;;;12.55;3.22;;;;;;;17.03;90.73;95759.28;5051119;28;20129;-75
2022/09/08 05:07:06;;;;;;;12.82;3.30;;;;;;;17.04;91.15;95769.13;5050788;28;20052;-75
2022/09/08 05:09:32;;;;;;;14.18;3.33;;;;;;;17.12;90.85;95766.09;5051120;28;20049;-75
2022/09/08 05:12:00;;;;;;;11.40;2.83;;;;;;;17.09;90.78;95772.31;5051074;28;20037;-77
2022/09/08 05:14:26;;;;;;;14.63;3.22;;;;;;;17.04;90.62;95777.38;5051189;28;20045;-76
2022/09/08 05:16:53;;;;;;;14.60;3.15;;;;;;;17.04;90.43;95780.13;5051705;28;20095;-76
2022/09/08 05:19:19;;;;;;;15.05;3.20;;;;;;;16.90;90.85;95778.75;5051038;28;20049;-77
2022/09/08 05:21:46;;;;;;;15.85;3.53;;;;;;;16.94;90.73;95785.09;5036949;28;20053;-77
2022/09/08 05:24:12;;;;;;;13.60;3.60;;;;;;;16.68;91.43;95801.59;5030971;28;20053;-76
2022/09/08 05:26:39;;;;;;;10.13;2.60;;;;;;;16.85;91.32;95808.53;5043592;28;20041;-78
2022/09/08 05:29:07;;;;;;;16.10;2.90;;;;;;;16.69;91.03;95812.22;5051143;28;20049;-76
2022/09/08 05:31:34;;;;;;;15.77;2.95;;;;;;;16.77;91.15;95802.16;5051437;28;20045;-77
2022/09/08 05:34:01;;;;;;;13.05;2.70;;;;;;;16.74;90.33;95807.59;5051009;28;20040;-74
2022/09/08 05:36:29;;;;;;;11.85;2.67;;;;;;;16.82;90.45;95814.78;5050198;28;20044;-74
2022/09/08 05:38:56;;;;;;;14.95;3.05;;;;;;;16.60;91.18;95802.63;5050386;28;20045;-74
2022/09/08 05:41:23;;;;;;;22.38;3.83;;;;;;;16.68;91.07;95804.34;5048527;28;20399;-74
2022/09/08 05:43:53;;;;;;;19.20;3.65;;;;;;;16.64;91.22;95814.47;5048949;28;20484;-74
2022/09/08 05:46:21;;;;;;;13.05;2.90;;;;;;;16.78;91.11;95817.47;5048558;28;20075;-74
2022/09/08 05:48:47;;;;;;;17.02;3.40;;;;;;;16.68;91.38;95831.84;5049463;28;20551;-75
2022/09/08 05:51:18;;;;;;;12.10;2.83;;;;;;;16.55;92.56;95822.19;5038351;28;20084;-74
2022/09/08 05:53:45;;;;;;;14.18;3.28;;;;;;;16.73;92.18;95828.78;5029351;28;20065;-74
2022/09/08 05:56:11;;;;;;;14.95;3.30;;;;;;;16.67;91.86;95830.25;5037043;28;20056;-74
2022/09/08 05:58:38;;;;;;;12.70;2.60;;;;;;;16.53;92.78;95824.53;5050236;28;20041;-74
2022/09/08 06:01:07;;;;;;;14.93;3.10;;;;;;;16.54;92.70;95818.66;5049888;28;20408;-74
2022/09/08 06:03:36;;;;;;;11.27;2.58;;;;;;;16.61;92.76;95820.75;5050234;28;20045;-74
2022/09/08 06:06:04;;;;;;;15.82;3.08;;;;;;;16.73;91.81;95817.81;5049549;28;20094;-73
2022/09/08 06:08:32;;;;;;;9.75;2.40;;;;;;;16.72;91.26;95810.72;5050142;28;20045;-74
2022/09/08 06:10:58;;;;;;;11.75;2.60;;;;;;;16.60;91.46;95816.38;5049857;28;20041;-74
2022/09/08 06:13:25;;;;;;;13.25;2.80;;;;;;;16.54;91.88;95812.38;5049453;28;20455;-74
2022/09/08 06:15:52;;;;;;;16.40;2.80;;;;;;;16.63;91.38;95813.69;5049979;28;20048;-74
2022/09/08 06:18:19;;;;;;;18.33;2.33;;;;;;;16.37;91.33;95817.22;5049520;28;20045;-74
2022/09/08 06:20:47;;;;;;;13.70;2.35;;;;;;;16.53;90.55;95808.81;5043508;28;20052;-74
2022/09/08 06:23:14;;;;;;;12.55;2.35;;;;;;;16.44;89.71;95816.53;5029643;28;20547;-74
2022/09/08 06:25:43;;;;;;;10.80;2.15;;;;;;;16.57;90.15;95819.88;5033715;28;20037;-75
2022/09/08 06:28:27;;;;;;;13.95;2.45;;;;;;;16.54;88.33;95834.34;5049190;28;20052;-74
2022/09/08 06:30:55;;;;;;;13.80;2.42;;;;;;;16.58;87.90;95827.75;5049758;28;20048;-74
2022/09/08 06:33:29;;;;;;;11.50;2.13;;;;;;;16.71;85.63;95828.38;5049396;28;20064;-74
2022/09/08 06:36:03;;;;;;;11.52;2.10;;;;;;;16.78;85.74;95825.72;5049813;28;20429;-74
2022/09/08 06:38:35;;;;;;;11.00;2.10;;;;;;;16.92;85.07;95825.94;5049448;28;20037;-74
2022/09/08 06:41:11;;;;;;;15.65;2.65;;;;;;;17.04;84.18;95826.88;5048587;28;20521;-73
2022/09/08 06:43:41;;;;;;;14.15;2.65;;;;;;;17.10;83.44;95831.69;5049744;28;20085;-75
2022/09/08 06:46:14;;;;;;;10.27;1.92;;;;;;;17.14;82.56;95831.72;5049192;28;20053;-73
2022/09/08 06:48:41;;;;;;;10.80;1.85;;;;;;;17.03;81.23;95847.31;5049633;28;20068;-74
2022/09/08 06:51:23;;;;;;;12.48;2.40;;;;;;;17.12;80.69;95856.06;5039765;28;20274;-74
2022/09/08 06:53:59;;;;;;;11.30;2.10;;;;;;;17.13;80.28;95857.66;5029751;28;20053;-74
2022/09/08 06:56:37;;;;;;;8.23;1.60;;;;;;;17.17;80.42;95853.78;5039077;28;20053;-75
2022/09/08 06:59:09;;;;;;;11.40;1.73;;;;;;;17.22;79.62;95849.91;5049142;28;20049;-75
2022/09/08 07:01:45;;;;;;;11.15;1.75;;;;;;;17.20;78.83;95852.25;5049751;28;20049;-74
2022/09/08 07:04:25;;;;;;;8.63;1.42;;;;;;;17.20;77.65;95846.75;5051717;28;20049;-74
2022/09/08 07:06:59;;;;;;;9.30;1.63;;;;;;;17.21;78.20;95853.81;5053628;28;20048;-75
2022/09/08 07:09:34;;;;;;;10.55;1.67;;;;;;;17.04;79.22;95862.63;5053066;28;20052;-75
2022/09/08 07:12:15;;;;;;;13.27;1.95;;;;;;;16.98;79.07;95861.38;5053335;28;20048;-76
2022/09/08 07:15:00;;;;;;;12.30;1.83;;;;;;;16.97;78.75;95862.53;5053169;28;20037;-75
2022/09/08 07:17:30;;;;;;;13.13;1.90;;;;;;;17.02;78.96;95878.69;5053095;28;20041;-75
2022/09/08 07:19:57;;;;;;;17.27;2.55;;;;;;;17.15;77.24;95882.84;5053166;28;20045;-75
2022/09/08 07:22:36;;;;;;;11.85;1.75;;;;;;;17.19;77.97;95884.47;5033033;28;20041;-75
2022/09/08 07:25:17;;;;;;;11.77;1.80;;;;;;;17.13;78.07;95896.19;5032892;28;20044;-75
2022/09/08 07:27:47;;;;;;;12.10;1.67;;;;;;;16.96;79.44;95894.72;5033332;28;20049;-76
2022/09/08 07:30:15;;;;;;;15.38;2.10;;;;;;;16.82;79.90;95903.56;5032804;28;20053;-75
2022/09/08 07:32:45;;;;;;;13.32;1.90;;;;;;;16.93;80.92;95909.25;5033167;28;20083;-75
2022/09/08 07:35:22;;;;;;;9.98;1.30;;;;;;;16.93;82.23;95914.75;5032634;28;20049;-75
2022/09/08 07:37:53;;;;;;;9.63;1.45;;;;;;;16.53;83.85;95916.03;5033135;28;20049;-76
2022/09/08 07:40:21;;;;;;;11.73;1.67;;;;;;;16.56;85.90;95928.25;5032606;28;20081;-75
2022/09/08 07:42:50;;;;;;;13.60;2.08;;;;;;;16.33;87.19;95931.75;5032855;28;20127;-75
2022/09/08 07:45:16;;;;;;;11.45;1.80;;;;;;;16.20;88.17;95930.38;5032441;28;20133;-75
2022/09/08 07:48:03;;;;;;;13.02;1.95;;;;;;;16.41;88.35;95939.00;5032816;28;20045;-76
2022/09/08 07:53:53;;;;;;;11.63;1.75;;;;;;;16.03;89.94;95942.59;5030583;28;20145;-76
2022/09/08 07:56:23;;;;;;;10.90;1.65;;;;;;;16.04;89.96;95937.91;5012153;28;20050;-76
2022/09/08 07:59:05;;;;;;;13.63;2.30;;;;;;;15.93;91.81;95942.41;5032771;28;20045;-76
2022/09/08 08:01:39;;;;;;;12.20;2.10;;;;;;;15.84;92.89;95937.91;5032572;28;20041;-76
2022/09/08 08:04:22;;;;;;;15.95;2.25;;;;;;;15.74;94.08;95943.97;5032032;28;20496;-75
2022/09/08 08:06:51;;;;;;;14.63;2.33;;;;;;;15.72;94.45;95940.03;5032276;28;20488;-76
2022/09/08 08:09:33;;;;;;;9.23;1.77;;;;;;;15.84;94.48;95943.41;5031612;28;20075;-75
2022/09/08 08:12:08;;;;;;;10.95;1.98;;;;;;;15.64;95.31;95944.56;5032254;28;20420;-76
2022/09/08 08:14:45;;;;;;;9.25;2.00;;;;;;;15.62;96.85;95942.16;5031434;28;20049;-75
2022/09/08 08:17:27;;;;;;;9.85;2.42;;;;;;;15.66;97.14;95936.78;5031831;28;20050;-76
2022/09/08 08:20:06;;;;;;;9.30;2.03;;;;;;;15.80;96.55;95942.53;5032197;28;20041;-76
2022/09/08 08:22:49;;;;;;;10.00;2.25;;;;;;;15.82;96.74;95940.25;5012334;28;20097;-75
2022/09/08 08:25:25;;;;;;;9.23;2.05;;;;;;;15.60;99.02;95938.94;5012061;28;20046;-75
2022/09/08 08:28:03;;;;;;;10.95;2.45;;;;;;;15.70;98.68;95931.34;5032102;28;20045;-75
2022/09/08 08:30:29;;;;;;;12.80;2.40;;;;;;;15.51;98.66;95929.38;5051683;28;20045;-74
2022/09/08 08:33:03;;;;;;;9.77;2.25;;;;;;;15.51;98.99;95926.63;5051794;28;20045;-74
2022/09/08 08:35:45;;;;;;;9.48;2.00;;;;;;;15.46;99.34;95921.41;5051289;28;20049;-74
2022/09/08 08:38:16;;;;;;;8.98;2.10;;;;;;;15.47;99.44;95923.00;5051321;28;20519;-75
2022/09/08 08:40:54;;;;;;;11.73;2.50;;;;;;;15.47;100.00;95928.50;5051556;28;20407;-74
2022/09/08 08:43:39;;;;;;;9.05;1.90;;;;;;;15.42;100.00;95926.03;5051251;28;20645;-74
2022/09/08 08:46:25;;;;;;;12.25;1.90;;;;;;;15.43;100.00;95930.34;5051171;28;20048;-74
2022/09/08 08:49:06;;;;;;;9.52;2.28;;;;;;;15.43;100.00;95927.59;5051671;28;20049;-74
2022/09/08 08:51:51;;;;;;;14.27;2.53;;;;;;;15.49;100.00;95931.66;5018788;28;20042;-74
2022/09/08 08:54:49;;;;;;;10.93;2.10;;;;;;;15.38;100.00;95943.19;5011260;28;20050;-74
2022/09/08 08:57:31;;;;;;;15.05;2.47;;;;;;;15.35;100.00;95943.94;4993476;28;20053;-74
2022/09/08 09:00:13;;;;;;;10.02;1.85;;;;;;;15.24;100.00;95951.09;5031359;28;20496;-74
2022/09/08 09:03:20;;;;;;;16.30;2.35;;;;;;;15.18;100.00;95951.75;5031244;28;20459;-74
2022/09/08 09:05:56;;;;;;;8.93;1.85;;;;;;;15.25;100.00;95944.47;5031272;28;20044;-74
2022/09/08 09:08:48;;;;;;;12.98;2.63;;;;;;;15.29;100.00;95956.31;5030903;28;20128;-74
2022/09/08 09:11:37;;;;;;;12.52;3.15;;;;;;;15.44;100.00;95951.16;5030855;28;20049;-74
2022/09/08 09:14:18;;;;;;;8.98;2.22;;;;;;;15.50;100.00;95949.69;5030500;28;20058;-73
2022/09/08 09:17:04;;;;;;;10.93;2.20;;;;;;;15.51;100.00;95946.63;5031504;28;20050;-75
2022/09/08 09:20:00;;;;;;;11.40;2.45;;;;;;;15.58;100.00;95951.47;5030953;28;20124;-74
2022/09/08 09:22:34;;;;;;;7.13;1.67;;;;;;;15.43;100.00;95949.56;5011161;28;20038;-74
2022/09/08 09:25:17;;;;;;;11.68;2.28;;;;;;;15.45;100.00;95937.06;5011280;28;20049;-74
2022/09/08 09:27:46;;;;;;;13.63;2.40;;;;;;;15.43;100.00;95939.38;5010950;28;20474;-75
2022/09/08 09:30:23;;;;;;;13.85;2.80;;;;;;;15.43;100.00;95944.88;5010665;28;20519;-74
2022/09/08 09:33:27;;;;;;;12.35;2.40;;;;;;;15.58;100.00;95940.47;5011044;28;20044;-74
2022/09/08 09:36:20;;;;;;;11.35;2.22;;;;;;;15.66;100.00;95934.03;5011076;28;20042;-75
2022/09/08 09:39:14;;;;;;;9.13;1.90;;;;;;;15.69;99.65;95935.25;5010921;28;20034;-75
2022/09/08 09:42:21;;;;;;;11.63;2.20;;;;;;;15.72;98.41;95935.31;5010858;28;20069;-74
2022/09/08 09:45:16;;;;;;;9.85;2.17;;;;;;;15.77;97.14;95940.53;5010631;28;20050;-74
2022/09/08 09:48:07;;;;;;;7.95;1.75;;;;;;;15.78;97.64;95936.63;5010519;28;20046;-74
2022/09/08 09:50:46;;;;;;;9.90;2.13;;;;;;;15.82;98.00;95939.44;5012525;28;20042;-75
2022/09/08 09:53:27;;;;;;;11.90;2.33;;;;;;;15.94;96.77;95941.25;5010330;28;20066;-74
2022/09/08 09:56:18;;;;;;;10.50;1.90;;;;;;;16.07;95.24;95939.91;5016210;28;20504;-75
2022/09/08 09:59:16;;;;;;;10.27;1.80;;;;;;;16.46;95.75;95934.34;5030215;28;20041;-75
2022/09/08 10:01:59;;;;;;;11.38;2.22;;;;;;;16.68;88.45;95934.34;5030276;28;20065;-75
2022/09/08 10:05:12;;;;;;;11.05;2.28;;;;;;;16.90;88.43;95943.75;5029934;28;20046;-74
2022/09/08 10:08:21;;;;;;;8.18;1.77;;;;;;;17.03;87.02;95935.31;5029880;28;20476;-74
2022/09/08 10:11:02;;;;;;;7.28;1.58;;;;;;;17.11;89.37;95943.28;5030220;28;20044;-74
2022/09/08 10:14:04;;;;;;;10.35;1.88;;;;;;;17.17;86.49;95941.03;5021258;28;20095;-74
2022/09/08 10:17:12;;;;;;;8.43;1.77;;;;;;;17.33;86.71;95938.91;5029856;28;20037;-75
2022/09/08 10:20:20;;;;;;;7.53;1.70;;;;;;;17.40;83.95;95944.50;5029846;28;20049;-75
2022/09/08 10:23:02;;;;;;;9.60;2.15;;;;;;;17.46;81.83;95939.47;4984286;28;20041;-75
2022/09/08 10:26:01;;;;;;;12.57;2.35;;;;;;;17.45;82.82;95938.69;5023861;28;20041;-74
2022/09/08 10:29:03;;;;;;;9.05;1.90;;;;;;;17.44;78.38;95950.88;5047132;28;20128;-74
2022/09/08 10:31:57;;;;;;;9.35;1.65;;;;;;;17.56;76.65;95949.06;5049705;28;20076;-75
2022/09/08 10:34:59;;;;;;;8.43;1.63;;;;;;;17.53;75.01;95941.53;5049216;28;20049;-76
2022/09/08 10:37:57;;;;;;;12.02;2.10;;;;;;;17.55;78.09;95939.22;5027350;28;20042;-75
2022/09/08 10:40:37;;;;;;;9.60;1.98;;;;;;;17.54;78.12;95943.09;5029368;28;20042;-74
2022/09/08 10:43:33;;;;;;;5.60;1.35;;;;;;;17.63;80.35;95940.88;5029626;28;20058;-74
2022/09/08 10:46:23;;;;;;;9.35;1.83;;;;;;;17.54;78.00;95932.09;5029822;28;20049;-74
2022/09/08 10:49:24;;;;;;;10.65;2.10;;;;;;;17.56;76.96;95936.09;5029525;28;20061;-75
2022/09/08 10:52:13;;;;;;;10.82;1.98;;;;;;;17.66;78.19;95934.63;4998608;28;20046;-75
2022/09/08 10:55:09;;;;;;;8.65;1.83;;;;;;;17.80;76.96;95934.84;5010002;28;20077;-74
2022/09/08 10:57:58;;;;;;;8.43;1.83;;;;;;;17.89;77.68;95932.59;5015612;28;20042;-73
2022/09/08 11:00:24;;;;;;;9.50;2.03;;;;;;;17.96;74.96;95926.38;5029357;28;20049;-74
2022/09/08 11:03:12;;;;;;;8.20;1.75;;;;;;;18.15;74.48;95933.66;5029515;28;20048;-75
2022/09/08 11:05:48;;;;;;;8.13;1.80;;;;;;;18.15;76.23;95931.69;5042550;28;20041;-74
2022/09/08 11:08:46;;;;;;;7.60;1.63;;;;;;;18.35;75.19;95935.06;5049010;28;20052;-75
2022/09/08 11:11:38;;;;;;;8.18;1.75;;;;;;;18.47;73.62;95928.47;5049100;28;20503;-74
2022/09/08 11:14:19;;;;;;;9.10;1.95;;;;;;;18.44;72.26;95943.81;5048706;28;20052;-74
2022/09/08 11:17:11;;;;;;;8.60;1.77;;;;;;;18.43;72.88;95942.25;5049441;28;20041;-75
2022/09/08 11:19:43;;;;;;;9.88;1.90;;;;;;;18.56;73.91;95937.22;5049251;28;20048;-76
2022/09/08 11:22:25;;;;;;;10.68;2.35;;;;;;;18.57;71.61;95943.53;5031010;28;20065;-73
2022/09/08 11:25:08;;;;;;;7.35;1.55;;;;;;;18.66;71.90;95953.09;5029546;28;20052;-75
2022/09/08 11:27:42;;;;;;;11.60;2.15;;;;;;;18.62;69.26;95951.47;5028838;28;20057;-74
2022/09/08 11:30:18;;;;;;;9.13;1.70;;;;;;;18.63;71.19;95955.81;5028946;28;20049;-75
2022/09/08 11:32:57;;;;;;;9.70;1.90;;;;;;;18.76;72.30;95957.16;5029169;28;20038;-76
2022/09/08 11:35:38;;;;;;;8.93;1.77;;;;;;;18.82;71.04;95952.88;5028907;28;20068;-76
2022/09/08 11:38:28;;;;;;;6.60;1.52;;;;;;;18.80;72.29;95946.94;5028867;28;20056;-75
2022/09/08 11:41:28;;;;;;;14.32;2.30;;;;;;;18.67;69.95;95956.63;5029276;28;20068;-76
2022/09/08 11:44:18;;;;;;;10.98;1.77;;;;;;;18.71;70.08;95960.25;5029138;28;20045;-76
2022/09/08 11:47:00;;;;;;;13.00;1.92;;;;;;;18.69;71.07;95957.09;5028944;28;20037;-76
2022/09/08 11:49:43;;;;;;;11.57;1.88;;;;;;;18.78;68.38;95963.06;5028689;28;20049;-75
2022/09/08 11:52:31;;;;;;;13.48;2.13;;;;;;;18.73;70.55;95958.69;5014665;28;20497;-74
2022/09/08 11:55:17;;;;;;;9.55;1.67;;;;;;;18.78;70.00;95971.34;5012971;28;20045;-75
2022/09/08 11:57:55;;;;;;;9.80;1.73;;;;;;;18.77;70.82;95975.28;5012664;28;20049;-75
2022/09/08 12:00:33;;;;;;;14.23;2.30;;;;;;;18.78;70.83;95979.63;5012432;28;20050;-74
2022/09/08 12:03:25;;;;;;;7.65;1.25;;;;;;;18.83;68.95;95975.72;5012929;28;20053;-75
2022/09/08 12:06:13;;;;;;;8.20;1.42;;;;;;;18.71;67.06;95965.78;5012675;28;20535;-75
2022/09/08 12:08:58;;;;;;;11.48;1.80;;;;;;;18.58;66.58;95975.44;5017785;28;20492;-74